Time;durP1;ratioP1;P1;durP2;ratioP2;P2;SDS_P1;SDS_P2;PMS_P1;PMS_P2;Temp;Humidity;BMP_temperature;BMP_pressure;BME280_temperature;BME280_humidity;BME280_pressure;Samples;Min_cycle;Max_cycle;Signal;HPM_P1;HPM_P2
2021/01/13 00:00:07;;;;;;;23.83;13.48;;;;;;;-144.15;100.00;63241.31;1020191;29;20130;-76
2021/01/13 00:01:36;;;;;;;18.60;12.13;;;;;;;-144.15;100.00;63241.31;1014890;29;20063;-77
2021/01/13 00:03:07;;;;;;;17.42;11.75;;;;;;;-144.15;100.00;63241.31;1018686;29;20047;-75
2021/01/13 00:04:36;;;;;;;21.58;12.90;;;;;;;-144.15;100.00;63241.31;1021818;29;20101;-77
2021/01/13 00:06:06;;;;;;;28.95;15.20;;;;;;;-144.15;100.00;63241.31;1018914;29;20059;-77
2021/01/13 00:07:34;;;;;;;20.40;12.10;;;;;;;-144.15;100.00;63241.31;1017764;29;20539;-76
2021/01/13 00:09:04;;;;;;;24.52;14.15;;;;;;;-144.15;100.00;63241.31;1025393;28;20466;-76
2021/01/13 00:10:33;;;;;;;26.42;14.82;;;;;;;-144.15;100.00;63241.31;1018554;29;20028;-77
2021/01/13 00:12:02;;;;;;;23.33;14.60;;;;;;;-144.15;100.00;63241.31;1022620;29;20031;-79
2021/01/13 00:13:31;;;;;;;22.15;14.02;;;;;;;-144.15;100.00;63241.31;1026674;28;20402;-76
2021/01/13 00:15:00;;;;;;;25.38;14.07;;;;;;;-144.15;100.00;63241.31;1026829;28;20039;-77
2021/01/13 00:16:28;;;;;;;24.13;13.65;;;;;;;-144.15;100.00;63241.31;1037787;28;20080;-76
2021/01/13 00:17:57;;;;;;;18.85;12.52;;;;;;;-144.15;100.00;63241.31;1026556;28;20042;-76
2021/01/13 00:19:26;;;;;;;17.38;11.93;;;;;;;-144.15;100.00;63241.31;1030728;28;20486;-76
2021/01/13 00:20:55;;;;;;;23.55;14.32;;;;;;;-144.15;100.00;63241.31;1030140;28;20481;-74
2021/01/13 00:22:24;;;;;;;26.98;15.55;;;;;;;-144.15;100.00;63241.31;1026317;28;20031;-76
2021/01/13 00:23:53;;;;;;;21.13;12.95;;;;;;;-144.15;100.00;63241.31;1030398;28;20037;-77
2021/01/13 00:25:22;;;;;;;15.10;10.35;;;;;;;-144.15;100.00;63241.31;1027833;28;20035;-76
2021/01/13 00:26:58;;;;;;;18.05;11.73;;;;;;;-144.15;100.00;63241.31;1030669;28;20040;-75
2021/01/13 00:28:26;;;;;;;20.92;12.48;;;;;;;-144.15;100.00;63241.31;1023386;28;20027;-78
2021/01/13 00:29:55;;;;;;;18.98;12.52;;;;;;;-144.15;100.00;63241.31;1022772;29;20073;-78
2021/01/13 00:31:24;;;;;;;25.08;12.85;;;;;;;-144.15;100.00;63241.31;1026751;28;20478;-74
2021/01/13 00:32:59;;;;;;;19.13;10.65;;;;;;;-144.15;100.00;63241.31;1026656;28;20030;-76
2021/01/13 00:34:28;;;;;;;20.90;12.07;;;;;;;-144.15;100.00;63241.31;1026731;28;20034;-78
2021/01/13 00:35:57;;;;;;;24.83;13.38;;;;;;;-144.15;100.00;63241.31;1026555;28;20509;-76
2021/01/13 00:37:27;;;;;;;20.35;12.35;;;;;;;-144.15;100.00;63241.31;1026374;28;20196;-78
2021/01/13 00:38:56;;;;;;;21.05;12.55;;;;;;;-144.15;100.00;63241.31;1026702;28;20130;-76
2021/01/13 00:40:25;;;;;;;21.90;12.13;;;;;;;-144.15;100.00;63241.31;1018279;29;20032;-77
2021/01/13 00:41:54;;;;;;;19.80;12.52;;;;;;;-144.15;100.00;63241.31;1022356;28;20042;-75
2021/01/13 00:43:22;;;;;;;24.67;14.15;;;;;;;-144.15;100.00;63241.31;1026589;28;20035;-75
2021/01/13 00:44:51;;;;;;;23.23;12.60;;;;;;;-144.15;100.00;63241.31;1018719;29;20408;-76
2021/01/13 00:46:20;;;;;;;27.15;14.02;;;;;;;-144.15;100.00;63241.31;1018643;29;20036;-77
2021/01/13 00:47:50;;;;;;;17.23;11.15;;;;;;;-144.15;100.00;63241.31;1026568;28;20027;-76
2021/01/13 00:49:18;;;;;;;17.85;11.35;;;;;;;-144.15;100.00;63241.31;1022672;29;20039;-75
2021/01/13 00:50:47;;;;;;;17.70;11.30;;;;;;;-144.15;100.00;63241.31;1030656;28;20113;-75
2021/01/13 00:52:16;;;;;;;19.38;12.15;;;;;;;-144.15;100.00;63241.31;1030396;28;20034;-76
2021/01/13 00:53:48;;;;;;;19.50;11.77;;;;;;;-144.15;100.00;63241.31;1026497;28;20050;-76
2021/01/13 00:55:17;;;;;;;19.48;11.15;;;;;;;-144.15;100.00;63241.31;1022774;28;20070;-76
2021/01/13 00:56:46;;;;;;;19.95;11.55;;;;;;;-144.15;100.00;63241.31;1018628;29;20570;-77
2021/01/13 00:58:15;;;;;;;14.18;10.23;;;;;;;-144.15;100.00;63241.31;1018714;29;20023;-76
2021/01/13 00:59:44;;;;;;;17.27;10.60;;;;;;;-144.15;100.00;63241.31;1022739;29;20046;-76
2021/01/13 01:01:13;;;;;;;16.63;10.63;;;;;;;-144.15;100.00;63241.31;1034594;28;20038;-77
2021/01/13 01:02:42;;;;;;;19.83;11.07;;;;;;;-144.15;100.00;63241.31;1026584;28;20035;-74
2021/01/13 01:04:11;;;;;;;23.13;10.70;;;;;;;-144.15;100.00;63241.31;1029272;28;20030;-77
2021/01/13 01:05:40;;;;;;;17.15;10.85;;;;;;;-144.15;100.00;63241.31;1020540;28;20422;-75
2021/01/13 01:07:12;;;;;;;20.33;9.93;;;;;;;-144.15;100.00;63241.31;1016067;29;20036;-74
2021/01/13 01:08:41;;;;;;;21.77;12.90;;;;;;;-144.15;100.00;63241.31;1026451;28;20026;-76
2021/01/13 01:10:10;;;;;;;18.65;10.60;;;;;;;-144.15;100.00;63241.31;1022694;29;20522;-76
2021/01/13 01:11:39;;;;;;;24.90;11.20;;;;;;;-144.15;100.00;63241.31;1018588;29;20040;-78
2021/01/13 01:13:08;;;;;;;16.83;10.55;;;;;;;-144.15;100.00;63241.31;1022616;29;20521;-74
2021/01/13 01:14:37;;;;;;;16.83;10.05;;;;;;;-144.15;100.00;63241.31;1026643;28;20575;-75
2021/01/13 01:16:08;;;;;;;17.67;10.40;;;;;;;-144.15;100.00;63241.31;1025555;28;20039;-75
2021/01/13 01:17:37;;;;;;;17.50;10.52;;;;;;;-144.15;100.00;63241.31;1021881;28;20430;-74
2021/01/13 01:19:08;;;;;;;20.27;11.30;;;;;;;-144.15;100.00;63241.31;1028258;28;20458;-75
2021/01/13 01:20:37;;;;;;;19.83;10.65;;;;;;;-144.15;100.00;63241.31;1026312;28;20043;-73
2021/01/13 01:22:06;;;;;;;24.95;11.48;;;;;;;-144.15;100.00;63241.31;1030563;28;20022;-77
2021/01/13 01:23:47;;;;;;;16.55;10.02;;;;;;;-144.15;100.00;63241.31;1022765;29;20062;-75
2021/01/13 01:25:16;;;;;;;20.88;10.60;;;;;;;-144.15;100.00;63241.31;1023930;28;20798;-75
2021/01/13 01:26:45;;;;;;;20.98;10.18;;;;;;;-144.15;100.00;63241.31;1022638;29;20050;-74
2021/01/13 01:28:14;;;;;;;22.67;11.30;;;;;;;-144.15;100.00;63241.31;1026392;28;20146;-76
2021/01/13 01:29:43;;;;;;;17.92;9.95;;;;;;;-144.15;100.00;63241.31;1026472;28;20035;-74
2021/01/13 01:31:12;;;;;;;15.15;9.90;;;;;;;-144.15;100.00;63241.31;1025761;28;20117;-77
2021/01/13 01:32:44;;;;;;;17.65;10.45;;;;;;;-144.15;100.00;63241.31;1022490;29;20035;-74
2021/01/13 01:34:13;;;;;;;16.10;9.45;;;;;;;-144.15;100.00;63241.31;1027453;28;20031;-75
2021/01/13 01:35:42;;;;;;;24.80;10.45;;;;;;;-144.15;100.00;63241.31;1031156;28;20035;-77
2021/01/13 01:37:14;;;;;;;17.90;10.65;;;;;;;-144.15;100.00;63241.31;1031328;28;20624;-73
2021/01/13 01:38:43;;;;;;;17.40;9.13;;;;;;;-144.15;100.00;63241.31;1035194;28;20042;-73
2021/01/13 01:40:16;;;;;;;20.27;10.25;;;;;;;-144.15;100.00;63241.31;1031416;28;20045;-75
2021/01/13 01:41:44;;;;;;;17.90;10.77;;;;;;;-144.15;100.00;63241.31;1027318;28;20031;-76
2021/01/13 01:43:16;;;;;;;19.45;10.60;;;;;;;-144.15;100.00;63241.31;1023890;28;20031;-76
2021/01/13 01:44:45;;;;;;;18.08;9.73;;;;;;;-144.15;100.00;63241.31;1027315;28;20530;-74
2021/01/13 01:46:15;;;;;;;18.33;10.27;;;;;;;-144.15;100.00;63241.31;1027223;28;20122;-74
2021/01/13 01:47:45;;;;;;;23.38;10.32;;;;;;;-144.15;100.00;63241.31;1031008;28;20030;-75
2021/01/13 01:49:14;;;;;;;19.23;10.98;;;;;;;-144.15;100.00;63241.31;1027063;28;20392;-74
2021/01/13 01:50:44;;;;;;;19.63;10.15;;;;;;;-144.15;100.00;63241.31;1031288;28;20034;-75
2021/01/13 01:52:42;;;;;;;20.15;11.18;;;;;;;-144.15;100.00;63241.31;1024513;28;20208;-76
2021/01/13 01:54:30;;;;;;;18.45;9.77;;;;;;;-144.15;100.00;63241.31;1022391;29;20567;-76
2021/01/13 01:56:19;;;;;;;17.08;9.40;;;;;;;-144.15;100.00;63241.31;1027729;28;20577;-77
2021/01/13 01:57:49;;;;;;;17.27;9.70;;;;;;;-144.15;100.00;63241.31;1023708;28;20123;-76
2021/01/13 01:59:59;;;;;;;19.42;10.43;;;;;;;-144.15;100.00;63241.31;1019221;29;20074;-76
2021/01/13 02:01:35;;;;;;;18.70;10.05;;;;;;;-144.15;100.00;63241.31;1035193;28;20833;-74
2021/01/13 02:03:09;;;;;;;19.90;10.10;;;;;;;-144.15;100.00;63241.31;1031969;28;20077;-76
2021/01/13 02:04:43;;;;;;;16.42;9.77;;;;;;;-144.15;100.00;63241.31;1019658;29;20059;-76
2021/01/13 02:06:14;;;;;;;18.00;10.75;;;;;;;-144.15;100.00;63241.31;1032152;28;20089;-75
2021/01/13 02:07:58;;;;;;;18.90;10.48;;;;;;;-144.15;100.00;63241.31;1030745;28;20098;-74
2021/01/13 02:09:28;;;;;;;18.08;10.73;;;;;;;-144.15;100.00;63241.31;1033079;28;20141;-74
2021/01/13 02:10:58;;;;;;;16.83;9.82;;;;;;;-144.15;100.00;63241.31;1031224;28;20057;-74
2021/01/13 02:12:28;;;;;;;20.70;10.68;;;;;;;-144.15;100.00;63241.31;1026195;28;20513;-73
2021/01/13 02:14:00;;;;;;;16.42;10.95;;;;;;;-144.15;100.00;63241.31;1020884;28;20024;-74
2021/01/13 02:15:29;;;;;;;21.30;10.50;;;;;;;-144.15;100.00;63241.31;1015776;28;20058;-75
2021/01/13 02:16:58;;;;;;;18.23;9.77;;;;;;;-144.15;100.00;63241.31;1023184;29;20031;-73
2021/01/13 02:18:29;;;;;;;16.25;9.45;;;;;;;-144.15;100.00;63241.31;1031110;28;20088;-75
2021/01/13 02:19:58;;;;;;;20.27;10.07;;;;;;;-144.15;100.00;63241.31;1031248;28;20023;-75
2021/01/13 02:21:31;;;;;;;22.00;11.32;;;;;;;-144.15;100.00;63241.31;1030964;28;20082;-76
2021/01/13 02:23:02;;;;;;;21.35;9.95;;;;;;;-144.15;100.00;63241.31;1027117;28;20121;-76
2021/01/13 02:24:50;;;;;;;22.73;10.90;;;;;;;-144.15;100.00;63241.31;1019085;29;20067;-74
2021/01/13 02:26:56;;;;;;;22.88;11.32;;;;;;;-144.15;100.00;63241.31;1023550;28;20086;-74
2021/01/13 02:28:46;;;;;;;24.98;12.20;;;;;;;-144.15;100.00;63241.31;1036134;28;20026;-74
2021/01/13 02:30:49;;;;;;;20.48;11.48;;;;;;;-144.15;100.00;63241.31;1027786;28;20023;-76
2021/01/13 02:32:36;;;;;;;21.05;11.10;;;;;;;-144.15;100.00;63241.31;1018093;28;20037;-74
2021/01/13 02:34:18;;;;;;;21.48;10.98;;;;;;;-144.15;100.00;63241.31;1023998;29;20082;-76
2021/01/13 02:35:59;;;;;;;23.95;10.52;;;;;;;-144.15;100.00;63241.31;1027142;28;20038;-74
2021/01/13 02:38:03;;;;;;;20.45;11.40;;;;;;;-144.15;100.00;63241.31;1028533;28;20143;-74
2021/01/13 02:39:33;;;;;;;20.60;11.57;;;;;;;-144.15;100.00;63241.31;1031236;28;20038;-76
2021/01/13 02:41:29;;;;;;;23.85;11.95;;;;;;;-144.15;100.00;63241.31;1026863;28;20421;-76
2021/01/13 02:43:04;;;;;;;20.40;11.05;;;;;;;-144.15;100.00;63241.31;1035165;28;20018;-76
2021/01/13 02:44:32;;;;;;;27.98;13.63;;;;;;;-144.15;100.00;63241.31;1035368;28;20464;-74
2021/01/13 02:46:04;;;;;;;22.27;11.77;;;;;;;-144.15;100.00;63241.31;1031136;28;20397;-74
2021/01/13 02:47:57;;;;;;;24.63;11.95;;;;;;;-144.15;100.00;63241.31;1030558;28;20038;-74
2021/01/13 02:49:28;;;;;;;26.08;11.80;;;;;;;-144.15;100.00;63241.31;1034939;28;20048;-77
2021/01/13 02:50:58;;;;;;;26.73;12.75;;;;;;;-144.15;100.00;63241.31;1030573;28;20069;-72
2021/01/13 02:52:28;;;;;;;23.70;13.20;;;;;;;-144.15;100.00;63241.31;1022165;29;20456;-74
2021/01/13 02:54:26;;;;;;;25.95;13.57;;;;;;;-144.15;100.00;63241.31;1022959;28;20058;-75
2021/01/13 02:55:55;;;;;;;29.30;14.07;;;;;;;-144.15;100.00;63241.31;1026392;28;20139;-74
2021/01/13 02:57:30;;;;;;;26.27;13.07;;;;;;;-144.15;100.00;63241.31;1034415;28;20076;-74
2021/01/13 02:59:05;;;;;;;26.10;13.18;;;;;;;-144.15;100.00;63241.31;1030930;28;20031;-75
2021/01/13 03:00:37;;;;;;;25.73;12.65;;;;;;;-144.15;100.00;63241.31;1023026;28;20027;-76
2021/01/13 03:02:08;;;;;;;24.88;14.20;;;;;;;-144.15;100.00;63241.31;1023015;28;20575;-76
2021/01/13 03:03:37;;;;;;;21.73;12.65;;;;;;;-144.15;100.00;63241.31;1020813;29;20570;-72
2021/01/13 03:05:06;;;;;;;22.95;12.98;;;;;;;-144.15;100.00;63241.31;1026834;28;20473;-77
2021/01/13 03:06:35;;;;;;;24.88;13.23;;;;;;;-144.15;100.00;63241.31;1027027;28;20663;-74
2021/01/13 03:08:11;;;;;;;26.30;13.07;;;;;;;-144.15;100.00;63241.31;1026619;28;20133;-73
2021/01/13 03:09:45;;;;;;;27.17;13.73;;;;;;;-144.15;100.00;63241.31;1026796;28;20035;-75
2021/01/13 03:11:20;;;;;;;24.40;13.20;;;;;;;-144.15;100.00;63241.31;1030468;28;20026;-75
2021/01/13 03:12:49;;;;;;;23.48;11.68;;;;;;;-144.15;100.00;63241.31;1031540;28;20141;-76
2021/01/13 03:14:19;;;;;;;25.90;12.20;;;;;;;-144.15;100.00;63241.31;1030932;28;20030;-75
2021/01/13 03:15:54;;;;;;;26.05;12.90;;;;;;;-144.15;100.00;63241.31;1026790;28;20065;-74
2021/01/13 03:17:29;;;;;;;26.20;14.55;;;;;;;-144.15;100.00;63241.31;1025823;28;20037;-74
2021/01/13 03:19:04;;;;;;;23.83;12.82;;;;;;;-144.15;100.00;63241.31;1023409;28;20032;-74
2021/01/13 03:20:43;;;;;;;25.65;13.70;;;;;;;-144.15;100.00;63241.31;1023023;28;20035;-74
2021/01/13 03:22:17;;;;;;;26.77;13.48;;;;;;;-144.15;100.00;63241.31;1018440;29;20061;-74
2021/01/13 03:23:52;;;;;;;27.38;13.38;;;;;;;-144.15;100.00;63241.31;1018718;28;20158;-76
2021/01/13 03:25:26;;;;;;;24.33;13.10;;;;;;;-144.15;100.00;63241.31;1030577;28;20026;-73
2021/01/13 03:26:57;;;;;;;28.67;13.10;;;;;;;-144.15;100.00;63241.31;1030894;28;20054;-75
2021/01/13 03:28:26;;;;;;;26.00;13.98;;;;;;;-144.15;100.00;63241.31;1026874;28;20720;-77
2021/01/13 03:29:56;;;;;;;26.05;14.73;;;;;;;-144.15;100.00;63241.31;1022790;29;20078;-75
2021/01/13 03:31:25;;;;;;;25.55;13.70;;;;;;;-144.15;100.00;63241.31;1022863;29;20023;-75
2021/01/13 03:33:29;;;;;;;22.70;13.60;;;;;;;-144.15;100.00;63241.31;1018915;29;20042;-75
2021/01/13 03:34:58;;;;;;;27.30;13.48;;;;;;;-144.15;100.00;63241.31;1018484;29;20078;-75
2021/01/13 03:36:45;;;;;;;23.83;12.45;;;;;;;-144.15;100.00;63241.31;1027007;28;20018;-74
2021/01/13 03:38:15;;;;;;;26.48;13.38;;;;;;;-144.15;100.00;63241.31;1030896;28;20425;-75
2021/01/13 03:39:52;;;;;;;26.70;13.70;;;;;;;-144.15;100.00;63241.31;1022680;29;20039;-73
2021/01/13 03:41:22;;;;;;;23.05;13.10;;;;;;;-144.15;100.00;63241.31;1016360;29;20504;-77
2021/01/13 03:42:55;;;;;;;28.17;13.25;;;;;;;-144.15;100.00;63241.31;1014856;29;20144;-76
2021/01/13 03:44:24;;;;;;;27.55;13.40;;;;;;;-144.15;100.00;63241.31;1023950;28;20118;-75
2021/01/13 03:45:53;;;;;;;27.15;13.95;;;;;;;-144.15;100.00;63241.31;1027816;28;20035;-75
2021/01/13 03:47:34;;;;;;;27.80;13.20;;;;;;;-144.15;100.00;63241.31;1026189;28;20027;-76
2021/01/13 03:49:07;;;;;;;27.42;14.13;;;;;;;-144.15;100.00;63241.31;1025384;28;20090;-73
2021/01/13 03:50:38;;;;;;;26.65;13.48;;;;;;;-144.15;100.00;63241.31;1030820;28;20019;-74
2021/01/13 03:52:28;;;;;;;30.75;13.40;;;;;;;-144.15;100.00;63241.31;1028571;28;20077;-74
2021/01/13 03:54:04;;;;;;;27.50;14.27;;;;;;;-144.15;100.00;63241.31;1026616;28;20183;-74
2021/01/13 03:55:34;;;;;;;28.75;13.55;;;;;;;-144.15;100.00;63241.31;1027594;28;20031;-76
2021/01/13 03:57:04;;;;;;;27.70;13.27;;;;;;;-144.15;100.00;63241.31;1022384;29;20027;-75
2021/01/13 03:58:53;;;;;;;29.23;14.00;;;;;;;-144.15;100.00;63241.31;1018752;29;20060;-74
2021/01/13 04:00:48;;;;;;;26.08;12.82;;;;;;;-144.15;100.00;63241.31;1025145;28;20039;-74
2021/01/13 04:02:22;;;;;;;27.65;13.05;;;;;;;-144.15;100.00;63241.31;1034193;28;20500;-73
2021/01/13 04:04:19;;;;;;;28.80;12.48;;;;;;;-144.15;100.00;63241.31;1026807;28;20523;-75
2021/01/13 04:06:08;;;;;;;28.10;13.27;;;;;;;-144.15;100.00;63241.31;1026406;28;20027;-74
2021/01/13 04:07:40;;;;;;;28.10;12.93;;;;;;;-144.15;100.00;63241.31;1030920;28;20042;-75
2021/01/13 04:09:11;;;;;;;32.00;13.93;;;;;;;-144.15;100.00;63241.31;1034657;28;20026;-75
2021/01/13 04:10:40;;;;;;;29.45;13.75;;;;;;;-144.15;100.00;63241.31;1022283;28;20035;-74
2021/01/13 04:12:12;;;;;;;29.35;14.80;;;;;;;-144.15;100.00;63241.31;1026514;28;20041;-77
2021/01/13 04:14:01;;;;;;;33.97;14.52;;;;;;;-144.15;100.00;63241.31;1034366;28;20827;-76
2021/01/13 04:15:42;;;;;;;28.88;13.35;;;;;;;-144.15;100.00;63241.31;1028346;28;20039;-74
2021/01/13 04:17:13;;;;;;;24.88;13.27;;;;;;;-144.15;100.00;63241.31;1024825;28;20761;-76
2021/01/13 04:18:43;;;;;;;30.80;14.73;;;;;;;-144.15;100.00;63241.31;1022793;29;20165;-74
2021/01/13 04:20:13;;;;;;;30.10;14.40;;;;;;;-144.15;100.00;63241.31;1023644;28;20031;-76
2021/01/13 04:21:42;;;;;;;29.17;14.63;;;;;;;-144.15;100.00;63241.31;1026482;28;20117;-74
2021/01/13 04:23:11;;;;;;;35.42;15.60;;;;;;;-144.15;100.00;63241.31;1030638;28;20129;-75
2021/01/13 04:24:43;;;;;;;33.30;15.02;;;;;;;-144.15;100.00;63241.31;1034657;28;20061;-75
2021/01/13 04:26:13;;;;;;;42.83;15.65;;;;;;;-144.15;100.00;63241.31;1034888;28;20469;-74
2021/01/13 04:27:42;;;;;;;34.05;15.00;;;;;;;-144.15;100.00;63241.31;1029728;28;20603;-75
2021/01/13 04:29:11;;;;;;;36.55;16.63;;;;;;;-144.15;100.00;63241.31;1028431;28;20042;-76
2021/01/13 04:30:40;;;;;;;30.38;15.30;;;;;;;-144.15;100.00;63241.31;1030476;28;20525;-73
2021/01/13 04:32:09;;;;;;;34.65;15.25;;;;;;;-144.15;100.00;63241.31;1034686;28;20026;-75
2021/01/13 04:33:38;;;;;;;32.30;15.75;;;;;;;-144.15;100.00;63241.31;1035021;28;20025;-74
2021/01/13 04:35:08;;;;;;;30.48;13.93;;;;;;;-144.15;100.00;63241.31;1022866;29;20141;-75
2021/01/13 04:36:37;;;;;;;30.58;14.38;;;;;;;-144.15;100.00;63241.31;1023013;29;20027;-73
2021/01/13 04:38:06;;;;;;;30.95;14.70;;;;;;;-144.15;100.00;63241.31;1034669;28;20053;-74
2021/01/13 04:39:35;;;;;;;34.92;15.18;;;;;;;-144.15;100.00;63241.31;1026225;28;20090;-73
2021/01/13 04:41:17;;;;;;;34.20;15.27;;;;;;;-144.15;100.00;63241.31;1029283;28;20030;-72
2021/01/13 04:43:08;;;;;;;29.77;14.30;;;;;;;-144.15;100.00;63241.31;1028563;28;20049;-74
2021/01/13 04:44:44;;;;;;;33.58;15.07;;;;;;;-144.15;100.00;63241.31;1026387;28;20867;-73
2021/01/13 04:46:32;;;;;;;35.58;14.68;;;;;;;-144.15;100.00;63241.31;1029992;28;20041;-74
2021/01/13 04:48:06;;;;;;;31.83;14.32;;;;;;;-144.15;100.00;63241.31;1030419;28;20038;-73
2021/01/13 04:49:35;;;;;;;36.60;14.93;;;;;;;-144.15;100.00;63241.31;1024446;28;20402;-75
2021/01/13 04:51:04;;;;;;;30.50;13.40;;;;;;;-144.15;100.00;63241.31;1026645;28;20039;-76
2021/01/13 04:52:34;;;;;;;32.42;15.18;;;;;;;-144.15;100.00;63241.31;1025344;28;20023;-74
2021/01/13 04:54:11;;;;;;;32.92;15.05;;;;;;;-144.15;100.00;63241.31;1025082;28;20026;-73
2021/01/13 04:55:44;;;;;;;32.80;13.82;;;;;;;-144.15;100.00;63241.31;1024419;28;20083;-73
2021/01/13 04:57:21;;;;;;;31.13;13.60;;;;;;;-144.15;100.00;63241.31;1030548;28;20050;-73
2021/01/13 04:59:30;;;;;;;36.92;14.45;;;;;;;-144.15;100.00;63241.31;1022393;29;20027;-74
2021/01/13 05:01:12;;;;;;;35.30;15.13;;;;;;;-144.15;100.00;63241.31;1035776;28;20792;-74
2021/01/13 05:03:17;;;;;;;34.25;14.50;;;;;;;-144.15;100.00;63241.31;1027711;28;20030;-73
2021/01/13 05:05:07;;;;;;;27.00;13.20;;;;;;;-144.15;100.00;63241.31;1030509;28;20030;-76
2021/01/13 05:06:48;;;;;;;34.65;16.13;;;;;;;-144.15;100.00;63241.31;1026527;28;20038;-75
2021/01/13 05:08:29;;;;;;;28.50;13.77;;;;;;;-144.15;100.00;63241.31;1024138;28;20124;-74
2021/01/13 05:10:15;;;;;;;29.83;13.55;;;;;;;-144.15;100.00;63241.31;1028941;28;20031;-74
2021/01/13 05:11:44;;;;;;;31.08;14.18;;;;;;;-144.15;100.00;63241.31;1021787;29;20069;-72
2021/01/13 05:13:14;;;;;;;25.75;13.38;;;;;;;-144.15;100.00;63241.31;1015369;29;20515;-73
2021/01/13 05:14:44;;;;;;;35.47;14.65;;;;;;;-144.15;100.00;63241.31;1019531;29;20086;-75
2021/01/13 05:16:14;;;;;;;35.45;14.77;;;;;;;-144.15;100.00;63241.31;1027326;28;20025;-74
2021/01/13 05:18:05;;;;;;;37.92;15.77;;;;;;;-144.15;100.00;63241.31;1027078;28;20180;-75
2021/01/13 05:20:08;;;;;;;37.55;14.73;;;;;;;-144.15;100.00;63241.31;1031179;28;20039;-75
2021/01/13 05:21:46;;;;;;;39.85;15.60;;;;;;;-144.15;100.00;63241.31;1027023;28;20058;-74
2021/01/13 05:23:15;;;;;;;35.72;14.90;;;;;;;-144.15;100.00;63241.31;1020943;28;20503;-74
2021/01/13 05:24:46;;;;;;;40.30;16.23;;;;;;;-144.15;100.00;63241.31;1027344;28;20027;-76
2021/01/13 05:26:19;;;;;;;44.05;17.90;;;;;;;-144.15;100.00;63241.31;1027912;28;20027;-75
2021/01/13 05:27:59;;;;;;;33.63;15.55;;;;;;;-144.15;100.00;63241.31;1022975;28;20474;-75
2021/01/13 05:29:27;;;;;;;36.20;14.27;;;;;;;-144.15;100.00;63241.31;1021836;28;20095;-74
2021/01/13 05:30:58;;;;;;;38.40;15.20;;;;;;;-144.15;100.00;63241.31;1028481;28;20038;-74
2021/01/13 05:32:27;;;;;;;31.73;14.63;;;;;;;-144.15;100.00;63241.31;1031259;28;20026;-77
2021/01/13 05:33:56;;;;;;;39.15;17.20;;;;;;;-144.15;100.00;63241.31;1023301;28;20055;-74
2021/01/13 05:35:29;;;;;;;38.42;15.52;;;;;;;-144.15;100.00;63241.31;1029545;28;20076;-74
2021/01/13 05:37:15;;;;;;;32.17;15.68;;;;;;;-144.15;100.00;63241.31;1027446;28;20026;-75
2021/01/13 05:39:04;;;;;;;34.05;14.57;;;;;;;-144.15;100.00;63241.31;1028940;28;20034;-74
2021/01/13 05:40:53;;;;;;;69.78;16.42;;;;;;;-144.15;100.00;63241.31;1029260;28;20034;-76
2021/01/13 05:42:22;;;;;;;28.20;13.60;;;;;;;-144.15;100.00;63241.31;1029202;28;20035;-73
2021/01/13 05:43:51;;;;;;;36.50;15.23;;;;;;;-144.15;100.00;63241.31;1025624;28;20039;-75
2021/01/13 05:45:20;;;;;;;31.67;14.65;;;;;;;-144.15;100.00;63241.31;1023363;29;20616;-75
2021/01/13 05:46:49;;;;;;;34.38;14.98;;;;;;;-144.15;100.00;63241.31;1023250;29;20027;-74
2021/01/13 05:48:39;;;;;;;30.55;13.88;;;;;;;-144.15;100.00;63241.31;1019414;29;20058;-74
2021/01/13 05:50:11;;;;;;;26.50;13.68;;;;;;;-144.15;100.00;63241.31;1027979;28;20711;-74
2021/01/13 05:51:41;;;;;;;25.20;12.85;;;;;;;-144.15;100.00;63241.31;1030571;28;20050;-74
2021/01/13 05:53:10;;;;;;;30.85;13.20;;;;;;;-144.15;100.00;63241.31;1031122;28;20053;-74
2021/01/13 05:54:49;;;;;;;32.60;13.05;;;;;;;-144.15;100.00;63241.31;1023459;28;20035;-70
2021/01/13 05:56:18;;;;;;;33.90;13.82;;;;;;;-144.15;100.00;63241.31;1018139;28;20028;-70
2021/01/13 05:57:55;;;;;;;30.20;12.85;;;;;;;-144.15;100.00;63241.31;1024440;29;20135;-72
2021/01/13 05:59:27;;;;;;;27.15;14.38;;;;;;;-144.15;100.00;63241.31;1021684;29;20098;-72
2021/01/13 06:00:57;;;;;;;25.65;12.32;;;;;;;-144.15;100.00;63241.31;1025980;28;20104;-71
2021/01/13 06:02:33;;;;;;;27.92;12.93;;;;;;;-144.15;100.00;63241.31;1027665;28;20038;-71
2021/01/13 06:04:03;;;;;;;22.58;11.60;;;;;;;-144.15;100.00;63241.31;1024118;28;20031;-72
2021/01/13 06:05:35;;;;;;;26.13;12.85;;;;;;;-144.15;100.00;63241.31;1029810;28;20065;-72
2021/01/13 06:07:17;;;;;;;;;;;;;;;-144.15;100.00;63241.31;1027922;28;20031;-73
2021/01/13 06:08:46;;;;;;;28.86;12.24;;;;;;;-144.15;100.00;63241.31;1023726;28;19918;-72
2021/01/13 06:10:15;;;;;;;24.83;11.75;;;;;;;-144.15;100.00;63241.31;1023209;29;20031;-72
2021/01/13 06:11:44;;;;;;;33.15;12.57;;;;;;;-144.15;100.00;63241.31;1026877;28;20045;-73
2021/01/13 06:13:18;;;;;;;27.48;12.40;;;;;;;-144.15;100.00;63241.31;1026756;28;20123;-74
2021/01/13 06:14:47;;;;;;;24.60;11.27;;;;;;;-144.15;100.00;63241.31;1027571;28;20059;-73
2021/01/13 06:16:20;;;;;;;31.38;12.38;;;;;;;-144.15;100.00;63241.31;1031320;28;20529;-72
2021/01/13 06:17:50;;;;;;;23.92;10.68;;;;;;;-144.15;100.00;63241.31;1022948;29;20125;-74
2021/01/13 06:19:20;;;;;;;24.77;10.85;;;;;;;-144.15;100.00;63241.31;1022991;29;20065;-73
2021/01/13 06:20:50;;;;;;;21.85;11.57;;;;;;;-144.15;100.00;63241.31;1021316;28;20035;-71
2021/01/13 06:22:28;;;;;;;19.80;10.75;;;;;;;-144.15;100.00;63241.31;1031666;28;20170;-72
2021/01/13 06:23:57;;;;;;;25.15;9.82;;;;;;;-144.15;100.00;63241.31;1027959;28;20030;-73
2021/01/13 06:25:29;;;;;;;24.85;9.43;;;;;;;-144.15;100.00;63241.31;1021541;29;20031;-71
2021/01/13 06:27:13;;;;;;;29.98;11.55;;;;;;;-144.15;100.00;63241.31;1026893;28;20035;-73
2021/01/13 06:29:13;;;;;;;23.70;10.88;;;;;;;-144.15;100.00;63241.31;1034305;28;20117;-72
2021/01/13 06:30:45;;;;;;;24.35;11.00;;;;;;;-144.15;100.00;63241.31;1025370;28;20495;-72
2021/01/13 06:32:32;;;;;;;22.77;11.23;;;;;;;-144.15;100.00;63241.31;1019076;28;20119;-75
2021/01/13 06:34:34;;;;;;;24.20;11.82;;;;;;;-144.15;100.00;63241.31;1031506;28;20569;-72
2021/01/13 06:36:51;;;;;;;26.65;11.30;;;;;;;-144.15;100.00;63241.31;1021699;29;20100;-72
2021/01/13 06:38:50;;;;;;;28.58;12.05;;;;;;;-144.15;100.00;63241.31;1016501;29;20155;-72
2021/01/13 06:40:20;;;;;;;28.77;13.07;;;;;;;-144.15;100.00;63241.31;1018377;29;20107;-73
2021/01/13 06:41:58;;;;;;;27.10;13.13;;;;;;;-144.15;100.00;63241.31;1025722;28;20054;-72
2021/01/13 06:43:30;;;;;;;26.92;12.88;;;;;;;-144.15;100.00;63241.31;1020778;28;20514;-73
2021/01/13 06:45:02;;;;;;;30.95;15.18;;;;;;;-144.15;100.00;63241.31;1018958;28;20039;-72
2021/01/13 06:46:35;;;;;;;30.85;12.07;;;;;;;-144.15;100.00;63241.31;1022363;28;20066;-73
2021/01/13 06:48:04;;;;;;;22.58;11.25;;;;;;;-144.15;100.00;63241.31;1026298;28;20051;-74
2021/01/13 06:49:33;;;;;;;30.30;12.80;;;;;;;-144.15;100.00;63241.31;1031104;28;20117;-71
2021/01/13 06:51:03;;;;;;;28.50;12.20;;;;;;;-144.15;100.00;63241.31;1030981;28;20117;-71
2021/01/13 06:52:32;;;;;;;31.02;14.88;;;;;;;-144.15;100.00;63241.31;1029571;28;20134;-71
2021/01/13 06:54:07;;;;;;;26.58;11.65;;;;;;;-144.15;100.00;63241.31;1029367;28;20045;-75
2021/01/13 06:55:42;;;;;;;26.52;12.13;;;;;;;-144.15;100.00;63241.31;1018694;29;20058;-76
2021/01/13 06:57:14;;;;;;;26.00;13.25;;;;;;;-144.15;100.00;63241.31;1025127;28;20089;-75
2021/01/13 06:59:01;;;;;;;30.27;13.35;;;;;;;-144.15;100.00;63241.31;1019084;29;20754;-74
2021/01/13 07:00:34;;;;;;;30.08;13.40;;;;;;;-144.15;100.00;63241.31;1025170;28;20503;-73